createdAt,value
2023-01-31T00:01:42.367Z,98273.88
2023-01-31T00:04:43.800Z,98276.09
2023-01-31T00:07:47.077Z,98266.16
2023-01-31T00:10:48.518Z,98271.34
2023-01-31T00:13:50.639Z,98260.00
2023-01-31T00:16:52.160Z,98263.16
2023-01-31T00:19:53.735Z,98253.56
2023-01-31T00:22:55.200Z,98254.59
2023-01-31T00:26:07.570Z,98253.38
2023-01-31T00:29:09.674Z,98251.66
2023-01-31T00:32:11.641Z,98247.25
2023-01-31T00:35:13.155Z,98252.03
2023-01-31T00:38:14.629Z,98248.13
2023-01-31T00:41:16.364Z,98242.34
2023-01-31T00:44:17.881Z,98236.00
2023-01-31T00:47:19.332Z,98233.50
2023-01-31T00:50:20.886Z,98228.34
2023-01-31T00:53:25.925Z,98232.31
2023-01-31T00:56:27.376Z,98233.34
2023-01-31T00:59:29.778Z,98232.09
2023-01-31T01:02:31.324Z,98220.09
2023-01-31T01:05:33.038Z,98222.09
2023-01-31T01:08:37.978Z,98227.16
2023-01-31T01:11:39.488Z,98225.66
2023-01-31T01:14:43.458Z,98225.66
2023-01-31T01:17:45.175Z,98217.44
2023-01-31T01:20:46.728Z,98226.00
2023-01-31T01:23:48.985Z,98232.22
2023-01-31T01:26:50.535Z,98228.44
2023-01-31T01:29:52.097Z,98232.16
2023-01-31T01:32:55.734Z,98232.22
2023-01-31T01:36:01.973Z,98236.94
2023-01-31T01:39:05.541Z,98231.31
2023-01-31T01:42:08.186Z,98232.25
2023-01-31T01:45:15.980Z,98234.50
2023-01-31T01:48:18.202Z,98233.75
2023-01-31T01:51:21.287Z,98236.28
2023-01-31T01:54:28.680Z,98227.38
2023-01-31T01:57:36.253Z,98226.22
2023-01-31T02:00:38.727Z,98218.50
2023-01-31T02:03:41.341Z,98232.66
2023-01-31T02:06:44.179Z,98239.09
2023-01-31T02:09:59.991Z,98236.81
2023-01-31T02:13:04.600Z,98242.66
2023-01-31T02:16:06.352Z,98234.31
2023-01-31T02:19:22.250Z,98228.34
2023-01-31T02:22:39.860Z,98224.00
2023-01-31T02:25:56.647Z,98224.50
2023-01-31T02:29:44.260Z,98232.22
2023-01-31T02:32:53.523Z,98224.78
2023-01-31T02:36:17.438Z,98225.66
2023-01-31T02:39:38.625Z,98232.59
2023-01-31T02:42:54.950Z,98222.66
2023-01-31T02:46:18.237Z,98224.78
2023-01-31T02:49:45.339Z,98232.78
2023-01-31T02:53:16.148Z,98243.34
2023-01-31T02:56:32.073Z,98245.56
2023-01-31T02:59:35.129Z,98252.31
2023-01-31T03:02:37.711Z,98251.28
2023-01-31T03:05:39.281Z,98255.66
2023-01-31T03:08:44.825Z,98256.47
2023-01-31T03:12:19.046Z,98259.41
2023-01-31T03:16:19.081Z,98250.16
2023-01-31T03:19:27.626Z,98255.00
2023-01-31T03:22:34.342Z,98260.06
2023-01-31T03:25:38.275Z,98257.19
2023-01-31T03:28:43.635Z,98249.59
2023-01-31T03:32:09.355Z,98260.22
2023-01-31T03:35:12.336Z,98264.09
2023-01-31T03:38:26.322Z,98267.69
2023-01-31T03:41:45.006Z,98263.09
2023-01-31T03:44:46.798Z,98273.06
2023-01-31T03:47:50.845Z,98257.63
2023-01-31T03:50:58.904Z,98259.97
2023-01-31T03:54:15.899Z,98261.91
2023-01-31T03:57:24.016Z,98255.44
2023-01-31T04:00:26.353Z,98241.84
2023-01-31T04:03:40.886Z,98240.34
2023-01-31T04:06:43.584Z,98233.75
2023-01-31T04:09:45.812Z,98234.91
2023-01-31T04:12:47.608Z,98240.75
2023-01-31T04:15:49.060Z,98237.59
2023-01-31T04:18:51.773Z,98234.88
2023-01-31T04:21:53.240Z,98235.97
2023-01-31T04:24:54.879Z,98231.78
2023-01-31T04:27:56.360Z,98241.81
2023-01-31T04:30:57.924Z,98247.47
2023-01-31T04:33:59.798Z,98259.41
2023-01-31T04:37:01.291Z,98264.75
2023-01-31T04:40:03.129Z,98266.25
2023-01-31T04:43:04.611Z,98276.03
2023-01-31T04:46:06.099Z,98271.94
2023-01-31T04:49:07.699Z,98264.91
2023-01-31T04:52:10.508Z,98275.69
2023-01-31T04:55:12.236Z,98281.69
2023-01-31T04:58:13.851Z,98278.41
2023-01-31T05:01:15.419Z,98275.47
2023-01-31T05:04:17.033Z,98275.31
2023-01-31T05:07:18.509Z,98275.25
2023-01-31T05:10:20.030Z,98281.81
2023-01-31T05:13:21.483Z,98281.28
2023-01-31T05:16:23.222Z,98283.84
2023-01-31T05:19:24.818Z,98273.88
2023-01-31T05:22:26.533Z,98272.22
2023-01-31T05:25:28.524Z,98267.38
2023-01-31T05:28:30.131Z,98268.47
2023-01-31T05:31:31.765Z,98271.97
2023-01-31T05:34:33.486Z,98270.97
2023-01-31T05:37:35.919Z,98276.00
2023-01-31T05:40:37.491Z,98267.84
2023-01-31T05:43:39.037Z,98275.06
2023-01-31T05:46:40.777Z,98273.00
2023-01-31T05:49:42.227Z,98277.53
2023-01-31T05:52:43.838Z,98266.28
2023-01-31T05:55:45.634Z,98265.59
2023-01-31T05:58:51.066Z,98271.59
2023-01-31T06:01:52.600Z,98272.28
2023-01-31T06:04:54.140Z,98273.34
2023-01-31T06:07:55.680Z,98270.84
2023-01-31T06:10:57.268Z,98280.44
2023-01-31T06:13:59.577Z,98279.53
2023-01-31T06:17:01.019Z,98276.56
2023-01-31T06:20:03.949Z,98285.41
2023-01-31T06:23:05.452Z,98295.22
2023-01-31T06:26:06.911Z,98295.22
2023-01-31T06:29:09.593Z,98301.94
2023-01-31T06:32:11.132Z,98302.94
2023-01-31T06:35:12.806Z,98304.47
2023-01-31T06:38:16.179Z,98302.38
2023-01-31T06:41:21.516Z,98310.41
2023-01-31T06:44:23.081Z,98306.06
2023-01-31T06:47:24.560Z,98310.63
2023-01-31T06:50:26.126Z,98305.66
2023-01-31T06:53:27.627Z,98308.25
2023-01-31T06:56:29.131Z,98304.56
2023-01-31T06:59:30.671Z,98307.53
2023-01-31T07:02:32.511Z,98305.94
2023-01-31T07:05:34.160Z,98303.38
2023-01-31T07:08:36.407Z,98305.31
2023-01-31T07:11:38.747Z,98303.63
2023-01-31T07:14:40.294Z,98305.25
2023-01-31T07:17:41.819Z,98301.84
2023-01-31T07:20:43.414Z,98308.38
2023-01-31T07:23:45.564Z,98292.13
2023-01-31T07:26:47.137Z,98299.34
2023-01-31T07:29:48.751Z,98297.38
2023-01-31T07:32:50.234Z,98296.25
2023-01-31T07:35:51.846Z,98304.16
2023-01-31T07:38:55.465Z,98302.63
2023-01-31T07:41:56.929Z,98309.16
2023-01-31T07:45:06.973Z,98321.16
2023-01-31T07:48:23.348Z,98316.31
2023-01-31T07:51:24.857Z,98324.63
2023-01-31T07:54:26.385Z,98324.47
2023-01-31T07:57:32.161Z,98323.00
2023-01-31T08:00:52.423Z,98329.28
2023-01-31T08:03:54.068Z,98326.91
2023-01-31T08:06:56.158Z,98329.94
2023-01-31T08:09:57.748Z,98329.38
2023-01-31T08:12:59.281Z,98313.59
2023-01-31T08:16:01.856Z,98329.34
2023-01-31T08:19:03.589Z,98335.81
2023-01-31T08:22:05.293Z,98340.50
2023-01-31T08:25:07.140Z,98344.91
2023-01-31T08:28:09.165Z,98345.03
2023-01-31T08:31:14.171Z,98346.03
2023-01-31T08:34:15.741Z,98336.03
2023-01-31T08:37:18.520Z,98336.84
2023-01-31T08:40:20.194Z,98339.69
2023-01-31T08:43:21.693Z,98333.06
2023-01-31T08:46:30.866Z,98326.34
2023-01-31T08:49:36.243Z,98330.91
2023-01-31T08:52:37.707Z,98313.91
2023-01-31T08:55:39.141Z,98308.00
2023-01-31T08:58:42.593Z,98308.94
2023-01-31T09:01:46.631Z,98309.69
2023-01-31T09:04:48.164Z,98311.41
2023-01-31T09:07:49.693Z,98305.97
2023-01-31T09:10:55.143Z,98306.72
2023-01-31T09:13:57.088Z,98306.31
2023-01-31T09:16:58.659Z,98303.91
2023-01-31T09:20:02.055Z,98314.75
2023-01-31T09:23:03.572Z,98317.50
2023-01-31T09:26:05.478Z,98321.94
2023-01-31T09:29:06.944Z,98316.28
2023-01-31T09:32:08.501Z,98320.56
2023-01-31T09:35:10.067Z,98318.88
2023-01-31T09:38:11.515Z,98308.47
2023-01-31T09:41:23.514Z,98309.84
2023-01-31T09:44:36.769Z,98307.47
2023-01-31T09:47:43.208Z,98308.56
2023-01-31T09:50:55.866Z,98301.50
2023-01-31T09:53:57.858Z,98292.72
2023-01-31T09:57:22.361Z,98299.75
2023-01-31T10:04:22.441Z,98289.41
2023-01-31T10:07:48.813Z,98299.22
2023-01-31T10:11:01.134Z,98304.16
2023-01-31T10:14:29.345Z,98304.59
2023-01-31T10:17:55.133Z,98307.50
2023-01-31T10:21:18.170Z,98315.22
2023-01-31T10:24:43.661Z,98314.66
2023-01-31T10:27:50.309Z,98312.69
2023-01-31T10:31:00.188Z,98316.00
2023-01-31T10:34:10.710Z,98310.72
2023-01-31T10:37:44.422Z,98314.31
2023-01-31T10:40:52.875Z,98306.97
2023-01-31T10:44:02.422Z,98308.75
2023-01-31T10:47:13.038Z,98301.72
2023-01-31T10:50:27.592Z,98293.59
2023-01-31T10:53:48.617Z,98282.13
2023-01-31T10:56:50.194Z,98271.63
2023-01-31T10:59:53.865Z,98286.78
2023-01-31T11:02:56.084Z,98272.91
2023-01-31T11:05:58.219Z,98265.59
2023-01-31T11:09:01.810Z,98271.50
2023-01-31T11:12:06.561Z,98282.50
2023-01-31T11:15:19.883Z,98282.72
2023-01-31T11:18:38.133Z,98291.53
2023-01-31T11:21:40.213Z,98279.19
2023-01-31T11:24:48.819Z,98273.56
2023-01-31T11:27:54.372Z,98282.72
2023-01-31T11:30:56.184Z,98274.16
2023-01-31T11:34:03.138Z,98274.28
2023-01-31T11:37:13.635Z,98298.84
2023-01-31T11:40:15.086Z,98298.69
2023-01-31T11:43:19.539Z,98308.13
2023-01-31T11:46:21.253Z,98310.97
2023-01-31T11:49:29.610Z,98296.44
2023-01-31T11:52:33.902Z,98290.16
2023-01-31T11:55:38.072Z,98298.50
2023-01-31T11:58:40.027Z,98273.78
2023-01-31T12:01:49.208Z,98278.06
2023-01-31T12:04:51.080Z,98283.69
2023-01-31T12:07:54.048Z,98281.56
2023-01-31T12:10:56.511Z,98270.00
2023-01-31T12:14:11.567Z,98266.78
2023-01-31T12:17:16.319Z,98235.66
2023-01-31T12:20:29.365Z,98231.03
2023-01-31T12:23:39.536Z,98239.97
2023-01-31T12:26:59.727Z,98224.72
2023-01-31T12:30:29.319Z,98214.56
2023-01-31T12:34:15.132Z,98208.97
2023-01-31T12:37:44.295Z,98194.53
2023-01-31T12:41:13.656Z,98197.75
2023-01-31T12:44:41.422Z,98195.34
2023-01-31T12:47:52.041Z,98191.75
2023-01-31T12:51:02.739Z,98201.91
2023-01-31T12:54:04.272Z,98211.47
2023-01-31T12:57:30.953Z,98227.34
2023-01-31T13:00:32.383Z,98212.81
2023-01-31T13:03:55.547Z,98212.06
2023-01-31T13:07:00.832Z,98208.03
2023-01-31T13:10:07.154Z,98201.56
2023-01-31T13:13:20.895Z,98195.00
2023-01-31T13:16:25.335Z,98187.53
2023-01-31T13:19:56.263Z,98180.44
2023-01-31T13:23:03.823Z,98175.34
2023-01-31T13:26:16.281Z,98193.91
2023-01-31T13:29:27.624Z,98194.44
2023-01-31T13:32:42.363Z,98200.25
2023-01-31T13:35:45.244Z,98193.56
2023-01-31T13:38:46.913Z,98186.28
2023-01-31T13:41:48.481Z,98180.47
2023-01-31T13:44:50.275Z,98182.94
2023-01-31T13:48:03.407Z,98178.28
2023-01-31T13:51:16.117Z,98176.97
2023-01-31T13:54:25.367Z,98185.91
2023-01-31T13:57:31.314Z,98181.75
2023-01-31T14:00:39.433Z,98174.09
2023-01-31T14:04:15.431Z,98166.03
2023-01-31T14:07:21.124Z,98153.56
2023-01-31T14:10:28.680Z,98154.19
2023-01-31T14:13:33.233Z,98150.91
2023-01-31T14:16:44.036Z,98155.28
2023-01-31T14:19:49.345Z,98150.13
2023-01-31T14:23:25.043Z,98151.31
2023-01-31T14:26:41.646Z,98151.50
2023-01-31T14:29:44.109Z,98150.91
2023-01-31T14:32:49.954Z,98137.38
2023-01-31T14:36:04.129Z,98139.50
2023-01-31T14:39:17.865Z,98136.47
2023-01-31T14:42:39.571Z,98134.31
2023-01-31T14:45:52.655Z,98138.22
2023-01-31T14:49:16.113Z,98140.88
2023-01-31T14:52:32.886Z,98131.59
2023-01-31T14:55:59.220Z,98133.25
2023-01-31T14:59:01.647Z,98140.41
2023-01-31T15:02:32.173Z,98135.78
2023-01-31T15:05:37.379Z,98143.50
2023-01-31T15:08:45.627Z,98132.53
2023-01-31T15:11:54.763Z,98133.28
2023-01-31T15:14:59.448Z,98140.94
2023-01-31T15:18:09.812Z,98143.31
2023-01-31T15:21:12.330Z,98132.84
2023-01-31T15:24:29.879Z,98129.50
2023-01-31T15:27:35.690Z,98141.06
2023-01-31T15:30:38.318Z,98134.84
2023-01-31T15:33:48.004Z,98140.09
2023-01-31T15:37:02.408Z,98127.56
2023-01-31T15:40:19.326Z,98124.22
2023-01-31T15:43:25.131Z,98122.91
2023-01-31T15:46:30.516Z,98107.69
2023-01-31T15:49:42.873Z,98113.16
2023-01-31T15:52:44.483Z,98119.97
2023-01-31T15:55:48.202Z,98117.69
2023-01-31T15:58:52.988Z,98101.00
2023-01-31T16:01:59.826Z,98098.78
2023-01-31T16:05:05.514Z,98093.53
2023-01-31T16:08:21.381Z,98088.66
2023-01-31T16:11:25.937Z,98092.47
2023-01-31T16:14:28.604Z,98088.53
2023-01-31T16:17:30.724Z,98084.50
2023-01-31T16:20:41.127Z,98095.69
2023-01-31T16:23:43.240Z,98108.91
2023-01-31T16:26:53.082Z,98110.09
2023-01-31T16:29:58.939Z,98116.53
2023-01-31T16:33:01.263Z,98112.00
2023-01-31T16:36:15.765Z,98137.38
2023-01-31T16:39:38.944Z,98143.31
2023-01-31T16:42:40.545Z,98156.41
2023-01-31T16:45:57.970Z,98150.56
2023-01-31T16:49:05.579Z,98156.88
2023-01-31T16:52:28.464Z,98152.59
2023-01-31T16:55:30.159Z,98165.44
2023-01-31T16:58:58.263Z,98173.78
2023-01-31T17:02:22.690Z,98173.06
2023-01-31T17:05:43.970Z,98200.91
2023-01-31T17:08:46.914Z,98225.44
2023-01-31T17:11:48.642Z,98226.16
2023-01-31T17:14:52.790Z,98212.22
2023-01-31T17:17:54.247Z,98206.03
2023-01-31T17:20:55.823Z,98209.84
2023-01-31T17:23:57.259Z,98210.19
2023-01-31T17:26:58.817Z,98211.13
2023-01-31T17:30:00.401Z,98212.81
2023-01-31T17:33:02.054Z,98202.19
2023-01-31T17:36:03.813Z,98218.78
2023-01-31T17:39:05.366Z,98204.97
2023-01-31T17:42:16.046Z,98203.28
2023-01-31T17:45:20.145Z,98202.34
2023-01-31T17:48:26.713Z,98194.47
2023-01-31T17:51:28.694Z,98188.75
2023-01-31T17:54:30.345Z,98196.03
2023-01-31T17:57:31.997Z,98189.72
2023-01-31T18:00:33.516Z,98194.47
2023-01-31T18:03:35.075Z,98203.28
2023-01-31T18:06:37.281Z,98209.22
2023-01-31T18:09:38.890Z,98213.63
2023-01-31T18:12:40.545Z,98205.69
2023-01-31T18:15:42.162Z,98216.75
2023-01-31T18:18:44.290Z,98214.00
2023-01-31T18:21:54.437Z,98217.22
2023-01-31T18:24:56.398Z,98221.75
2023-01-31T18:27:58.815Z,98218.19
2023-01-31T18:31:10.599Z,98222.47
2023-01-31T18:34:12.268Z,98227.84
2023-01-31T18:37:20.005Z,98215.69
2023-01-31T18:40:21.727Z,98224.38
2023-01-31T18:43:23.384Z,98210.56
2023-01-31T18:46:25.323Z,98216.41
2023-01-31T18:49:26.804Z,98215.56
2023-01-31T18:52:29.879Z,98201.41
2023-01-31T18:55:31.565Z,98204.50
2023-01-31T18:58:35.360Z,98205.47
2023-01-31T19:01:37.217Z,98200.56
2023-01-31T19:04:38.856Z,98210.72
2023-01-31T19:07:40.348Z,98211.66
2023-01-31T19:10:41.826Z,98215.22
2023-01-31T19:13:43.495Z,98211.53
2023-01-31T19:16:45.152Z,98213.69
2023-01-31T19:19:46.722Z,98214.97
2023-01-31T19:22:48.303Z,98208.91
2023-01-31T19:25:49.967Z,98203.78
2023-01-31T19:28:51.831Z,98202.97
2023-01-31T19:31:55.008Z,98188.78
2023-01-31T19:34:56.576Z,98191.78
2023-01-31T19:37:58.218Z,98184.25
2023-01-31T19:41:14.329Z,98180.00
2023-01-31T19:44:15.883Z,98181.91
2023-01-31T19:47:18.261Z,98187.97
2023-01-31T19:50:19.899Z,98180.00
2023-01-31T19:53:21.471Z,98173.19
2023-01-31T19:56:24.180Z,98169.50
2023-01-31T19:59:25.707Z,98170.56
2023-01-31T20:02:27.374Z,98179.28
2023-01-31T20:05:28.997Z,98177.59
2023-01-31T20:08:30.993Z,98185.47
2023-01-31T20:11:34.003Z,98194.41
2023-01-31T20:14:35.835Z,98189.25
2023-01-31T20:17:37.289Z,98183.56
2023-01-31T20:20:38.811Z,98190.47
2023-01-31T20:23:40.417Z,98182.34
2023-01-31T20:26:42.047Z,98179.13
2023-01-31T20:29:43.672Z,98180.22
2023-01-31T20:32:45.166Z,98181.75
2023-01-31T20:35:46.995Z,98180.72
2023-01-31T20:38:49.248Z,98183.56
2023-01-31T20:41:50.707Z,98175.91
2023-01-31T20:44:52.310Z,98178.31
2023-01-31T20:47:58.060Z,98171.16
2023-01-31T20:51:00.332Z,98167.00
2023-01-31T20:54:02.965Z,98165.22
2023-01-31T20:57:04.747Z,98172.00
2023-01-31T21:00:06.918Z,98163.41
2023-01-31T21:03:08.406Z,98164.38
2023-01-31T21:06:10.052Z,98163.31
2023-01-31T21:09:11.795Z,98166.53
2023-01-31T21:12:13.411Z,98167.13
2023-01-31T21:15:15.545Z,98167.94
2023-01-31T21:18:17.213Z,98165.00
2023-01-31T21:21:23.516Z,98160.59
2023-01-31T21:24:24.995Z,98170.13
2023-01-31T21:27:26.617Z,98161.78
2023-01-31T21:30:28.562Z,98168.81
2023-01-31T21:33:30.489Z,98165.22
2023-01-31T21:36:34.111Z,98167.94
2023-01-31T21:39:35.650Z,98167.94
2023-01-31T21:42:39.741Z,98167.25
2023-01-31T21:45:42.102Z,98166.91
2023-01-31T21:48:43.670Z,98161.06
2023-01-31T21:51:45.402Z,98155.00
2023-01-31T21:54:51.035Z,98155.09
2023-01-31T21:57:59.512Z,98150.91
2023-01-31T22:01:11.203Z,98127.34
2023-01-31T22:04:12.763Z,98133.19
2023-01-31T22:07:14.334Z,98132.59
2023-01-31T22:10:16.242Z,98129.03
2023-01-31T22:13:17.743Z,98141.16
2023-01-31T22:16:21.076Z,98129.97
2023-01-31T22:19:22.696Z,98132.34
2023-01-31T22:22:24.265Z,98132.59
2023-01-31T22:25:25.704Z,98127.34
2023-01-31T22:28:30.533Z,98124.38
2023-01-31T22:31:33.253Z,98126.88
2023-01-31T22:34:34.898Z,98102.13
2023-01-31T22:37:36.369Z,98099.00
2023-01-31T22:40:43.219Z,98084.13
2023-01-31T22:43:47.053Z,98090.91
2023-01-31T22:46:48.594Z,98089.97
2023-01-31T22:49:50.153Z,98086.97
2023-01-31T22:52:51.632Z,98076.50
2023-01-31T22:55:53.532Z,98078.63
2023-01-31T22:58:57.075Z,98077.31
2023-01-31T23:01:58.629Z,98069.25
2023-01-31T23:05:00.078Z,98074.38
2023-01-31T23:08:01.563Z,98086.59
2023-01-31T23:11:08.651Z,98080.66
2023-01-31T23:14:10.076Z,98091.03
2023-01-31T23:17:30.012Z,98091.72
2023-01-31T23:20:32.796Z,98089.22
2023-01-31T23:23:34.422Z,98098.88
2023-01-31T23:26:36.043Z,98098.28
2023-01-31T23:29:37.581Z,98100.91
2023-01-31T23:32:41.454Z,98101.75
2023-01-31T23:35:44.291Z,98093.06
2023-01-31T23:38:45.768Z,98099.97
2023-01-31T23:41:47.255Z,98091.13
2023-01-31T23:44:48.821Z,98101.75
2023-01-31T23:47:50.374Z,98092.81
2023-01-31T23:50:51.878Z,98093.53
2023-01-31T23:53:53.320Z,98093.41
2023-01-31T23:56:54.749Z,98087.91
2023-01-31T23:59:56.303Z,98091.38
